Terminal Aerodrome Forecast
Issued by NWS

Home | Current Version | Previous Version | Text Only | Print | Product List | Glossary On
Versions: 1 2 3 4 5 6 7 8 9 10 11 12 13
000
FTUS46 KSEW 041100
TAFPAE
TAF
KPAE 041120Z 0412/0512 00000KT P6SM SKC
     FM041400 19006KT P6SM SCT015 SCT250
     FM041800 21010KT P6SM SCT050 SCT250
     FM042100 21014KT P6SM BKN050
     FM050400 21010KT P6SM VCSH SCT020 BKN040
     FM051100 18008KT P6SM VCSH BKN020 OVC040=

USA.gov is the U.S. government's official web portal to all federal, state and local government web resources and services.